Kincaid, Canada
Current Conditions -  °F | °C
As of 7:00 PM on Sunday 23 Nov 2014 (Local Time) from CYYN Reporting Station
Clear Clear  
Wind Chill: 10°   Ceiling: Unl
Heat Index: 10°   Visibility: 9mi
Dew Point: 10°   Wind: 3mph
Humidity: 100%   Direction: 100°E
Pressure: 29.77"   Gusts: NA
Location:  49.67°N, 107°W
Report Text: CYYN 240100Z AUTO 10003KT 9SM CLR M12/M12 A2977 RMK SLP130
Loading
Personal Weather Stations






























Interactive Weather Map New forecast layout! Learn more

10-Day Weather Forecast

Advertisements
Track Severe Weather on mobile